Jj Sky — VRJA6 — position and weather

sailwx.info

Track history (hours):
 
Tides and Currents Weather Stations Pressure Air Temp Water Temp Dewpoint Dewpoint Depression Visibility Wind Speed Wind Dir Waves Ship Positions

Jj Sky

Last reported at 2017-May-25 08:24 UTC. Time now 2017-May-25 08:47 UTC.
Position N 31°07' E 122°42'.

Length 148 m; draft 7.1 m.

Type: Ship (hazmat cat D). MMSI: 477397500.

Date/timePositionNaut miles runAvg speedWind from/ knotsBaromVisibWave heightAir tempDewpointWater temp
2017-May-25 08:24N 31°07' E 122°42'716.1
2017-May-25 08:00N 31°06' E 122°50'816.0
2017-May-25 07:30N 31°06' E 122°59'816.1
2017-May-25 06:59N 31°05' E 123°08'  
2017-May-23 00:24N 34°52' E 139°19'716.8
2017-May-23 00:00N 34°56' E 139°26'816.5
2017-May-22 23:30N 35°01' E 139°34'816.5
2017-May-22 23:00N 35°06' E 139°42'816.0
2017-May-22 22:30N 35°13' E 139°46'611.9
2017-May-22 22:00N 35°18' E 139°44'714.6
2017-May-22 21:30N 35°26' E 139°43'2 4.8
2017-May-22 21:00N 35°27' E 139°41'0 0.0
2017-May-22 20:27N 35°27' E 139°41'0 0.0
2017-May-22 19:57N 35°27' E 139°41'0 0.0
2017-May-22 19:26N 35°27' E 139°41'0 0.0
2017-May-22 18:56N 35°27' E 139°41'0 0.0
2017-May-22 18:29N 35°27' E 139°41'0 0.0
2017-May-22 17:59N 35°27' E 139°41'0 0.0
2017-May-22 17:29N 35°27' E 139°41'0 0.2
2017-May-22 16:58N 35°27' E 139°41'0 0.2
2017-May-22 16:25N 35°27' E 139°41'0 0.0
2017-May-22 15:55N 35°27' E 139°41'0 0.0
2017-May-22 15:25N 35°27' E 139°41'0 0.0
2017-May-22 15:00N 35°27' E 139°41'0 0.0
2017-May-22 14:30N 35°27' E 139°41'0 0.0
2017-May-22 14:00N 35°27' E 139°41'0 0.0
2017-May-22 13:30N 35°27' E 139°41'0 0.0
2017-May-22 13:00N 35°27' E 139°41'0 0.0
2017-May-22 12:29N 35°27' E 139°41'0 0.0
2017-May-22 11:59N 35°27' E 139°41'0 0.0
2017-May-22 11:26N 35°27' E 139°41'0 0.1
2017-May-22 11:00N 35°28' E 139°41'3 5.1
2017-May-22 10:30N 35°27' E 139°44'2 4.2
2017-May-22 10:00N 35°27' E 139°47'612.6
2017-May-22 09:30N 35°33' E 139°51'5 9.4
2017-May-22 09:00N 35°36' E 139°47'0 0.2
2017-May-22 08:29N 35°36' E 139°47'0 0.0
2017-May-22 07:56N 35°36' E 139°47'0 0.0
2017-May-22 07:25N 35°36' E 139°47'0 0.0
2017-May-22 06:58N 35°36' E 139°47'0 0.0
2017-May-22 06:25N 35°36' E 139°47'0 0.0
2017-May-22 05:58N 35°36' E 139°47'0 0.0
2017-May-22 05:30N 35°36' E 139°47'0 0.0
2017-May-22 05:00N 35°36' E 139°47'0 0.0
2017-May-22 04:30N 35°36' E 139°47'0 0.0
2017-May-22 04:00N 35°36' E 139°47'0 0.0
2017-May-22 03:30N 35°36' E 139°47'0 0.0
2017-May-22 02:59N 35°36' E 139°47'0 0.0
2017-May-22 02:26N 35°36' E 139°47'0 0.0
2017-May-22 01:59N 35°36' E 139°47'0 0.0
2017-May-22 01:29N 35°36' E 139°47'0 0.0
2017-May-22 00:59N 35°36' E 139°47'0 0.2
2017-May-22 00:28N 35°36' E 139°47'0 0.2
2017-May-21 23:58N 35°36' E 139°47'0 0.0
2017-May-21 23:25N 35°36' E 139°47'0 0.0
2017-May-21 22:58N 35°36' E 139°47'0 0.0
2017-May-21 22:30N 35°36' E 139°47'0 0.7
2017-May-21 22:00N 35°36' E 139°47'4 8.9
2017-May-21 21:30N 35°33' E 139°51'611.5
2017-May-21 21:00N 35°27' E 139°50'612.3
2017-May-21 20:30N 35°22' E 139°45'510.8
2017-May-21 20:00N 35°17' E 139°46'612.4
2017-May-21 19:30N 35°11' E 139°47'917.1
2017-May-21 19:00N 35°03' E 139°43'916.8
2017-May-21 18:28N 34°57' E 139°34'82116.6
2017-May-19 17:04N 31°03' E 123°55'516.4
2017-May-19 16:45N 31°03' E 123°49'416.5
2017-May-19 16:30N 31°04' E 123°44'916.4
2017-May-19 15:56N 31°04' E 123°34'1616.8
2017-May-19 15:00N 31°05' E 123°15'2617.0
2017-May-19 13:29N 31°06' E 122°45'1316.8
2017-May-19 12:42N 31°05' E 122°30'313.9
2017-May-19 12:30N 31°05' E 122°27'611.9
2017-May-19 11:58N 31°06' E 122°19'613.7
2017-May-19 11:30N 31°09' E 122°13'713.3
2017-May-19 11:00N 31°13' E 122°07'612.8
2017-May-19 10:31N 31°15' E 121°60'612.5
2017-May-19 10:01N 31°16' E 121°52'713.0
2017-May-19 09:30N 31°18' E 121°45'4 8.5
2017-May-19 09:00N 31°20' E 121°41'0 0.7
2017-May-19 08:20N 31°20' E 121°40'0 0.0
2017-May-19 08:01N 31°20' E 121°40'0 0.1
2017-May-19 07:30N 31°20' E 121°40'0 0.0
2017-May-19 07:01N 31°20' E 121°40'0 0.0
2017-May-19 06:31N 31°20' E 121°40'0 0.1
2017-May-19 06:00N 31°20' E 121°40'0 0.1
2017-May-19 05:30N 31°20' E 121°40'0 0.1
2017-May-19 05:00N 31°20' E 121°40'0 0.0
2017-May-19 04:31N 31°20' E 121°40'0 0.1
2017-May-19 04:01N 31°20' E 121°40'0 0.1
2017-May-19 03:26N 31°20' E 121°40'0 0.0
2017-May-19 02:55N 31°20' E 121°40'0 0.0
2017-May-19 02:28N 31°20' E 121°40'0 0.0
2017-May-19 01:58N 31°20' E 121°40'0 0.0
2017-May-19 01:25N 31°20' E 121°40'0 0.0
2017-May-19 00:58N 31°20' E 121°40'0 0.1
2017-May-19 00:30N 31°20' E 121°40'0 0.0
2017-May-19 00:00N 31°20' E 121°40'0 0.0
2017-May-18 23:30N 31°20' E 121°40'0 0.0
2017-May-18 23:00N 31°20' E 121°40'0 0.0
2017-May-18 22:29N 31°20' E 121°40'0 0.0
2017-May-18 21:59N 31°20' E 121°40'0 0.0
2017-May-18 21:29N 31°20' E 121°40'0 0.1
2017-May-18 20:59N 31°20' E 121°40'0 0.0
2017-May-18 20:17N 31°20' E 121°40'0 0.0
2017-May-18 19:59N 31°20' E 121°40'0 0.0
2017-May-18 19:25N 31°20' E 121°40'0 0.1
2017-May-18 18:58N 31°20' E 121°40'0 0.1
2017-May-18 18:25N 31°20' E 121°40'0 0.1
2017-May-18 18:00N 31°20' E 121°40'0 0.1
2017-May-18 17:27N 31°20' E 121°40'0 0.1
2017-May-18 17:00N 31°20' E 121°40'0 0.0
2017-May-18 16:27N 31°20' E 121°40'0 0.0
2017-May-18 16:00N 31°20' E 121°40'0 0.1
2017-May-18 15:29N 31°20' E 121°40'0 0.1
2017-May-18 15:00N 31°20' E 121°40'2 1.6
2017-May-18 14:00N 31°19' E 121°42'4 8.4
2017-May-18 13:30N 31°18' E 121°47'510.3
2017-May-18 13:00N 31°16' E 121°52'510.1
2017-May-18 12:30N 31°15' E 121°58'611.8
2017-May-18 12:00N 31°14' E 122°05'611.5
2017-May-18 11:29N 31°11' E 122°11'611.7
2017-May-18 11:00N 31°08' E 122°16'714.1
2017-May-18 10:31N 31°07' E 122°24'611.1
2017-May-18 10:00N 31°07' E 122°31'715.0
2017-May-18 09:30N 31°07' E 122°39'813.2
2017-May-18 08:56N 31°07' E 122°48'713.4
2017-May-18 08:24N 31°07' E 122°56'1713.6
2017-May-18 07:08N 31°06' E 123°17'314.1
2017-May-18 06:55N 31°06' E 123°20'613.6
2017-May-18 06:29N 31°06' E 123°27'715.2
2017-May-18 06:00N 31°05' E 123°35'815.1
2017-May-18 05:30N 31°04' E 123°44'815.1
2017-May-18 05:00N 31°03' E 123°53'815.2
2017-May-18 04:28N 31°03' E 124°03'815.4
2017-May-18 03:59N 31°02' E 124°11'715.2
2017-May-18 03:30N 31°02' E 124°20'815.3
2017-May-18 02:59N 31°02' E 124°29'2115.2
2017-May-18 01:38N 31°03' E 124°53'315.2
2017-May-18 01:26N 31°03' E 124°56'715.8
2017-May-18 01:00N 31°03' E 125°05'815.7
2017-May-18 00:30N 31°03' E 125°14'76915.6
2017-May-15 23:06N 35°06' E 139°44'217.9
2017-May-15 22:59N 35°08' E 139°45'715.3
2017-May-15 22:30N 35°15' E 139°46'613.0
2017-May-15 22:01N 35°21' E 139°42'713.8
2017-May-15 21:30N 35°28' E 139°42'1 0.9
2017-May-15 20:59N 35°27' E 139°41'0 0.0
2017-May-15 20:29N 35°27' E 139°41'0 0.0
2017-May-15 19:58N 35°27' E 139°41'0 0.0
2017-May-15 19:28N 35°27' E 139°41'0 0.0
2017-May-15 18:58N 35°27' E 139°41'0 0.0
2017-May-15 18:28N 35°27' E 139°41'0 0.0
2017-May-15 18:00N 35°27' E 139°41'0 0.0
2017-May-15 17:30N 35°27' E 139°41'0 0.0
2017-May-15 17:00N 35°27' E 139°41'0 0.0
2017-May-15 16:30N 35°27' E 139°41'0 0.0
2017-May-15 16:00N 35°27' E 139°41'0 0.0
2017-May-15 15:29N 35°27' E 139°41'0 0.0
2017-May-15 14:59N 35°27' E 139°41'0 0.0
2017-May-15 13:59N 35°27' E 139°41'0 0.0
2017-May-15 13:28N 35°27' E 139°41'0 0.0
2017-May-15 12:59N 35°27' E 139°41'0 0.0
2017-May-15 12:29N 35°27' E 139°41'0 0.0
2017-May-15 11:59N 35°27' E 139°41'0 0.0
2017-May-15 11:29N 35°27' E 139°41'0 0.0
2017-May-15 10:58N 35°27' E 139°41'0 0.0
2017-May-15 10:28N 35°27' E 139°41'0 0.2
2017-May-15 10:00N 35°28' E 139°42'4 7.7
2017-May-15 09:30N 35°27' E 139°46'713.6
2017-May-15 09:00N 35°33' E 139°50'4 7.3
2017-May-15 08:28N 35°36' E 139°47'  
Track history (hours):
 
Tides and Currents Weather Stations Pressure Air Temp Water Temp Dewpoint Dewpoint Depression Visibility Wind Speed Wind Dir Waves Ship Positions

Jj Sky

Last reported at 2017-May-25 08:24 UTC. Time now 2017-May-25 08:47 UTC.
Position N 31°07' E 122°42'.

Length 148 m; draft 7.1 m.

Type: Ship (hazmat cat D). MMSI: 477397500.

Date/timePositionNaut miles runAvg speedWind from/ knotsBaromVisibWave heightAir tempDewpointWater temp
2017-May-25 08:24N 31°07' E 122°42'716.1
2017-May-25 08:00N 31°06' E 122°50'816.0
2017-May-25 07:30N 31°06' E 122°59'816.1
2017-May-25 06:59N 31°05' E 123°08'  
2017-May-23 00:24N 34°52' E 139°19'716.8
2017-May-23 00:00N 34°56' E 139°26'816.5
2017-May-22 23:30N 35°01' E 139°34'816.5
2017-May-22 23:00N 35°06' E 139°42'816.0
2017-May-22 22:30N 35°13' E 139°46'611.9
2017-May-22 22:00N 35°18' E 139°44'714.6
2017-May-22 21:30N 35°26' E 139°43'2 4.8
2017-May-22 21:00N 35°27' E 139°41'0 0.0
2017-May-22 20:27N 35°27' E 139°41'0 0.0
2017-May-22 19:57N 35°27' E 139°41'0 0.0
2017-May-22 19:26N 35°27' E 139°41'0 0.0
2017-May-22 18:56N 35°27' E 139°41'0 0.0
2017-May-22 18:29N 35°27' E 139°41'0 0.0
2017-May-22 17:59N 35°27' E 139°41'0 0.0
2017-May-22 17:29N 35°27' E 139°41'0 0.2
2017-May-22 16:58N 35°27' E 139°41'0 0.2
2017-May-22 16:25N 35°27' E 139°41'0 0.0
2017-May-22 15:55N 35°27' E 139°41'0 0.0
2017-May-22 15:25N 35°27' E 139°41'0 0.0
2017-May-22 15:00N 35°27' E 139°41'0 0.0
2017-May-22 14:30N 35°27' E 139°41'0 0.0
2017-May-22 14:00N 35°27' E 139°41'0 0.0
2017-May-22 13:30N 35°27' E 139°41'0 0.0
2017-May-22 13:00N 35°27' E 139°41'0 0.0
2017-May-22 12:29N 35°27' E 139°41'0 0.0
2017-May-22 11:59N 35°27' E 139°41'0 0.0
2017-May-22 11:26N 35°27' E 139°41'0 0.1
2017-May-22 11:00N 35°28' E 139°41'3 5.1
2017-May-22 10:30N 35°27' E 139°44'2 4.2
2017-May-22 10:00N 35°27' E 139°47'612.6
2017-May-22 09:30N 35°33' E 139°51'5 9.4
2017-May-22 09:00N 35°36' E 139°47'0 0.2
2017-May-22 08:29N 35°36' E 139°47'0 0.0
2017-May-22 07:56N 35°36' E 139°47'0 0.0
2017-May-22 07:25N 35°36' E 139°47'0 0.0
2017-May-22 06:58N 35°36' E 139°47'0 0.0
2017-May-22 06:25N 35°36' E 139°47'0 0.0
2017-May-22 05:58N 35°36' E 139°47'0 0.0
2017-May-22 05:30N 35°36' E 139°47'0 0.0
2017-May-22 05:00N 35°36' E 139°47'0 0.0
2017-May-22 04:30N 35°36' E 139°47'0 0.0
2017-May-22 04:00N 35°36' E 139°47'0 0.0
2017-May-22 03:30N 35°36' E 139°47'0 0.0
2017-May-22 02:59N 35°36' E 139°47'0 0.0
2017-May-22 02:26N 35°36' E 139°47'0 0.0
2017-May-22 01:59N 35°36' E 139°47'0 0.0
2017-May-22 01:29N 35°36' E 139°47'0 0.0
2017-May-22 00:59N 35°36' E 139°47'0 0.2
2017-May-22 00:28N 35°36' E 139°47'0 0.2
2017-May-21 23:58N 35°36' E 139°47'0 0.0
2017-May-21 23:25N 35°36' E 139°47'0 0.0
2017-May-21 22:58N 35°36' E 139°47'0 0.0
2017-May-21 22:30N 35°36' E 139°47'0 0.7
2017-May-21 22:00N 35°36' E 139°47'4 8.9
2017-May-21 21:30N 35°33' E 139°51'611.5
2017-May-21 21:00N 35°27' E 139°50'612.3
2017-May-21 20:30N 35°22' E 139°45'510.8
2017-May-21 20:00N 35°17' E 139°46'612.4
2017-May-21 19:30N 35°11' E 139°47'917.1
2017-May-21 19:00N 35°03' E 139°43'916.8
2017-May-21 18:28N 34°57' E 139°34'82116.6
2017-May-19 17:04N 31°03' E 123°55'516.4
2017-May-19 16:45N 31°03' E 123°49'416.5
2017-May-19 16:30N 31°04' E 123°44'916.4
2017-May-19 15:56N 31°04' E 123°34'1616.8
2017-May-19 15:00N 31°05' E 123°15'2617.0
2017-May-19 13:29N 31°06' E 122°45'1316.8
2017-May-19 12:42N 31°05' E 122°30'313.9
2017-May-19 12:30N 31°05' E 122°27'611.9
2017-May-19 11:58N 31°06' E 122°19'613.7
2017-May-19 11:30N 31°09' E 122°13'713.3
2017-May-19 11:00N 31°13' E 122°07'612.8
2017-May-19 10:31N 31°15' E 121°60'612.5
2017-May-19 10:01N 31°16' E 121°52'713.0
2017-May-19 09:30N 31°18' E 121°45'4 8.5
2017-May-19 09:00N 31°20' E 121°41'0 0.7
2017-May-19 08:20N 31°20' E 121°40'0 0.0
2017-May-19 08:01N 31°20' E 121°40'0 0.1
2017-May-19 07:30N 31°20' E 121°40'0 0.0
2017-May-19 07:01N 31°20' E 121°40'0 0.0
2017-May-19 06:31N 31°20' E 121°40'0 0.1
2017-May-19 06:00N 31°20' E 121°40'0 0.1
2017-May-19 05:30N 31°20' E 121°40'0 0.1
2017-May-19 05:00N 31°20' E 121°40'0 0.0
2017-May-19 04:31N 31°20' E 121°40'0 0.1
2017-May-19 04:01N 31°20' E 121°40'0 0.1
2017-May-19 03:26N 31°20' E 121°40'0 0.0
2017-May-19 02:55N 31°20' E 121°40'0 0.0
2017-May-19 02:28N 31°20' E 121°40'0 0.0
2017-May-19 01:58N 31°20' E 121°40'0 0.0
2017-May-19 01:25N 31°20' E 121°40'0 0.0
2017-May-19 00:58N 31°20' E 121°40'0 0.1
2017-May-19 00:30N 31°20' E 121°40'0 0.0
2017-May-19 00:00N 31°20' E 121°40'0 0.0
2017-May-18 23:30N 31°20' E 121°40'0 0.0
2017-May-18 23:00N 31°20' E 121°40'0 0.0
2017-May-18 22:29N 31°20' E 121°40'0 0.0
2017-May-18 21:59N 31°20' E 121°40'0 0.0
2017-May-18 21:29N 31°20' E 121°40'0 0.1
2017-May-18 20:59N 31°20' E 121°40'0 0.0
2017-May-18 20:17N 31°20' E 121°40'0 0.0
2017-May-18 19:59N 31°20' E 121°40'0 0.0
2017-May-18 19:25N 31°20' E 121°40'0 0.1
2017-May-18 18:58N 31°20' E 121°40'0 0.1
2017-May-18 18:25N 31°20' E 121°40'0 0.1
2017-May-18 18:00N 31°20' E 121°40'0 0.1
2017-May-18 17:27N 31°20' E 121°40'0 0.1
2017-May-18 17:00N 31°20' E 121°40'0 0.0
2017-May-18 16:27N 31°20' E 121°40'0 0.0
2017-May-18 16:00N 31°20' E 121°40'0 0.1
2017-May-18 15:29N 31°20' E 121°40'0 0.1
2017-May-18 15:00N 31°20' E 121°40'2 1.6
2017-May-18 14:00N 31°19' E 121°42'4 8.4
2017-May-18 13:30N 31°18' E 121°47'510.3
2017-May-18 13:00N 31°16' E 121°52'510.1
2017-May-18 12:30N 31°15' E 121°58'611.8
2017-May-18 12:00N 31°14' E 122°05'611.5
2017-May-18 11:29N 31°11' E 122°11'611.7
2017-May-18 11:00N 31°08' E 122°16'714.1
2017-May-18 10:31N 31°07' E 122°24'611.1
2017-May-18 10:00N 31°07' E 122°31'715.0
2017-May-18 09:30N 31°07' E 122°39'813.2
2017-May-18 08:56N 31°07' E 122°48'713.4
2017-May-18 08:24N 31°07' E 122°56'1713.6
2017-May-18 07:08N 31°06' E 123°17'314.1
2017-May-18 06:55N 31°06' E 123°20'613.6
2017-May-18 06:29N 31°06' E 123°27'715.2
2017-May-18 06:00N 31°05' E 123°35'815.1
2017-May-18 05:30N 31°04' E 123°44'815.1
2017-May-18 05:00N 31°03' E 123°53'815.2
2017-May-18 04:28N 31°03' E 124°03'815.4
2017-May-18 03:59N 31°02' E 124°11'715.2
2017-May-18 03:30N 31°02' E 124°20'815.3
2017-May-18 02:59N 31°02' E 124°29'2115.2
2017-May-18 01:38N 31°03' E 124°53'315.2
2017-May-18 01:26N 31°03' E 124°56'715.8
2017-May-18 01:00N 31°03' E 125°05'815.7
2017-May-18 00:30N 31°03' E 125°14'76915.6
2017-May-15 23:06N 35°06' E 139°44'217.9
2017-May-15 22:59N 35°08' E 139°45'715.3
2017-May-15 22:30N 35°15' E 139°46'613.0
2017-May-15 22:01N 35°21' E 139°42'713.8
2017-May-15 21:30N 35°28' E 139°42'1 0.9
2017-May-15 20:59N 35°27' E 139°41'0 0.0
2017-May-15 20:29N 35°27' E 139°41'0 0.0
2017-May-15 19:58N 35°27' E 139°41'0 0.0
2017-May-15 19:28N 35°27' E 139°41'0 0.0
2017-May-15 18:58N 35°27' E 139°41'0 0.0
2017-May-15 18:28N 35°27' E 139°41'0 0.0
2017-May-15 18:00N 35°27' E 139°41'0 0.0
2017-May-15 17:30N 35°27' E 139°41'0 0.0
2017-May-15 17:00N 35°27' E 139°41'0 0.0
2017-May-15 16:30N 35°27' E 139°41'0 0.0
2017-May-15 16:00N 35°27' E 139°41'0 0.0
2017-May-15 15:29N 35°27' E 139°41'0 0.0
2017-May-15 14:59N 35°27' E 139°41'0 0.0
2017-May-15 13:59N 35°27' E 139°41'0 0.0
2017-May-15 13:28N 35°27' E 139°41'0 0.0
2017-May-15 12:59N 35°27' E 139°41'0 0.0
2017-May-15 12:29N 35°27' E 139°41'0 0.0
2017-May-15 11:59N 35°27' E 139°41'0 0.0
2017-May-15 11:29N 35°27' E 139°41'0 0.0
2017-May-15 10:58N 35°27' E 139°41'0 0.0
2017-May-15 10:28N 35°27' E 139°41'0 0.2
2017-May-15 10:00N 35°28' E 139°42'4 7.7
2017-May-15 09:30N 35°27' E 139°46'713.6
2017-May-15 09:00N 35°33' E 139°50'4 7.3
2017-May-15 08:28N 35°36' E 139°47'  

Dump ship's entire track history